Dyess AFB, Texas
Current Conditions -  °F | °C
As of 1:58 PM on Friday 19 Dec 2014 (Local Time) from KDYS Reporting Station
Overcast Overcast  
Wind Chill: 44°   Ceiling: 1600
Heat Index: 47°   Visibility: 10mi
Dew Point: 38°   Wind: 5mph
Humidity: 73%   Direction: 330°NNW
Pressure: 30.15"   Gusts: NA
Location:  32.42°N, 99.82°W
Report Text: KDYS 191958Z 33004KT 10SM OVC016 08/04 A3015 RMK AO2A SLP210 T00810036 $
Loading
Personal Weather Stations






























Interactive Weather Map New forecast layout! Learn more

10-Day Weather Forecast

Advertisements
Track Severe Weather on mobile